Time;durP1;ratioP1;P1;durP2;ratioP2;P2;SDS_P1;SDS_P2;PMS_P1;PMS_P2;Temp;Humidity;BMP_temperature;BMP_pressure;BME280_temperature;BME280_humidity;BME280_pressure;Samples;Min_cycle;Max_cycle;Signal;HPM_P1;HPM_P2
2024/02/14 00:02:17;;;;;;;28.35;17.15;;;;;;;;;;4990094;28;20070;-56
2024/02/14 00:04:43;;;;;;;89.03;22.02;;;;;;;;;;4992852;28;20116;-57
2024/02/14 00:07:09;;;;;;;81.15;19.73;;;;;;;;;;4992653;28;20018;-57
2024/02/14 00:09:35;;;;;;;111.28;21.95;;;;;;;;;;4992774;28;20510;-60
2024/02/14 00:12:02;;;;;;;63.38;20.98;;;;;;;;;;4989498;28;20024;-57
2024/02/14 00:14:28;;;;;;;39.25;20.35;;;;;;;;;;4992733;28;20026;-60
2024/02/14 00:16:55;;;;;;;39.22;20.60;;;;;;;;;;4976422;28;20027;-57
2024/02/14 00:19:22;;;;;;;38.15;20.63;;;;;;;;;;4973183;28;20037;-58
2024/02/14 00:21:48;;;;;;;32.42;19.35;;;;;;;;;;4977701;28;20034;-57
2024/02/14 00:24:15;;;;;;;22.45;15.93;;;;;;;;;;4991958;28;20034;-60
2024/02/14 00:26:42;;;;;;;19.80;16.27;;;;;;;;;;4992091;28;20022;-58
2024/02/14 00:29:08;;;;;;;26.60;18.70;;;;;;;;;;4990690;28;20038;-58
2024/02/14 00:31:34;;;;;;;30.27;19.40;;;;;;;;;;4991992;28;20030;-58
2024/02/14 00:34:00;;;;;;;23.80;18.10;;;;;;;;;;4973125;28;20205;-57
2024/02/14 00:36:26;;;;;;;21.17;16.42;;;;;;;;;;4986152;28;20037;-60
2024/02/14 00:38:53;;;;;;;19.35;16.27;;;;;;;;;;4992045;28;20034;-61
2024/02/14 00:41:19;;;;;;;29.30;18.20;;;;;;;;;;4992472;28;20027;-58
2024/02/14 00:43:45;;;;;;;35.50;19.75;;;;;;;;;;4980967;28;20026;-59
2024/02/14 00:46:17;;;;;;;47.47;24.10;;;;;;;;;;4975540;28;20480;-60
2024/02/14 00:48:44;;;;;;;47.78;23.38;;;;;;;;;;4974025;28;20031;-58
2024/02/14 00:51:10;;;;;;;;;;;;;;;;;;4992790;28;20030;-59
2024/02/14 00:53:36;;;;;;;43.15;22.48;;;;;;;;;;5025776;23;19921;-47
2024/02/14 00:56:02;;;;;;;34.22;22.10;;;;;;;;;;5001113;28;20478;-46
2024/02/14 00:58:29;;;;;;;33.30;18.77;;;;;;;;;;4998088;28;20050;-47
2024/02/14 01:00:55;;;;;;;35.90;20.57;;;;;;;;;;5005288;28;20042;-46
2024/02/14 01:03:21;;;;;;;30.63;19.40;;;;;;;;;;4981313;28;20115;-49
2024/02/14 01:05:48;;;;;;;40.03;21.08;;;;;;;;;;4980814;28;20069;-48
2024/02/14 01:08:14;;;;;;;120.32;25.58;;;;;;;;;;4974019;28;20041;-49
2024/02/14 01:10:41;;;;;;;75.60;22.23;;;;;;;;;;4990934;28;20372;-47
2024/02/14 01:13:07;;;;;;;102.27;21.90;;;;;;;;;;4991727;28;20038;-48
2024/02/14 01:15:33;;;;;;;118.67;24.53;;;;;;;;;;4983208;28;20038;-46
2024/02/14 01:18:00;;;;;;;93.07;22.98;;;;;;;;;;4972662;28;20035;-47
2024/02/14 01:20:26;;;;;;;55.35;22.25;;;;;;;;;;4982803;28;20026;-48
2024/02/14 01:22:52;;;;;;;84.60;26.30;;;;;;;;;;4991674;28;20070;-47
2024/02/14 01:25:18;;;;;;;45.38;20.80;;;;;;;;;;4990662;28;20109;-47
2024/02/14 01:27:45;;;;;;;63.30;23.25;;;;;;;;;;4990317;28;20030;-46
2024/02/14 01:30:11;;;;;;;74.60;24.87;;;;;;;;;;4987602;28;20479;-47
2024/02/14 01:32:38;;;;;;;83.63;27.27;;;;;;;;;;4978022;28;20789;-46
2024/02/14 01:35:05;;;;;;;66.57;25.73;;;;;;;;;;4980447;28;20038;-46
2024/02/14 01:37:31;;;;;;;96.47;28.43;;;;;;;;;;4980055;28;20034;-47
2024/02/14 01:39:57;;;;;;;151.98;32.33;;;;;;;;;;4971391;28;20653;-49
2024/02/14 01:42:23;;;;;;;77.72;28.42;;;;;;;;;;4990044;28;20037;-46
2024/02/14 01:44:50;;;;;;;69.35;28.48;;;;;;;;;;4989149;28;20491;-47
2024/02/14 01:47:16;;;;;;;38.00;26.83;;;;;;;;;;4974043;28;20386;-47
2024/02/14 01:49:44;;;;;;;31.37;22.47;;;;;;;;;;4979738;28;20117;-47
2024/02/14 01:52:10;;;;;;;;;;;;;;;;;;4990998;28;20042;-48
2024/02/14 01:54:36;;;;;;;28.48;20.90;;;;;;;;;;4992444;28;19960;-47
2024/02/14 01:57:03;;;;;;;26.77;20.63;;;;;;;;;;4995084;28;20076;-48
2024/02/14 01:59:30;;;;;;;29.50;22.65;;;;;;;;;;4989045;28;20030;-46
2024/02/14 02:01:56;;;;;;;30.63;23.05;;;;;;;;;;4979592;28;20027;-48
2024/02/14 02:04:22;;;;;;;26.67;20.23;;;;;;;;;;4985336;28;20034;-47
2024/02/14 02:06:49;;;;;;;27.67;20.17;;;;;;;;;;4993736;28;20026;-46
2024/02/14 02:09:16;;;;;;;22.30;18.17;;;;;;;;;;4994992;28;20030;-47
2024/02/14 02:11:53;;;;;;;26.70;17.40;;;;;;;;;;4994940;28;20062;-46
2024/02/14 02:14:21;;;;;;;24.73;18.67;;;;;;;;;;4979985;28;20023;-48
2024/02/14 02:16:47;;;;;;;22.13;16.63;;;;;;;;;;4975320;28;20171;-46
2024/02/14 02:19:15;;;;;;;25.17;18.13;;;;;;;;;;4975282;28;20030;-49
2024/02/14 02:21:46;;;;;;;21.02;16.95;;;;;;;;;;4993506;28;20026;-47
2024/02/14 02:24:13;;;;;;;21.85;16.85;;;;;;;;;;4994622;28;20113;-47
2024/02/14 02:26:39;;;;;;;25.88;17.67;;;;;;;;;;4994563;28;20030;-46
2024/02/14 02:29:06;;;;;;;25.17;17.73;;;;;;;;;;4985006;28;20483;-48
2024/02/14 02:31:33;;;;;;;25.80;19.23;;;;;;;;;;4980620;28;20437;-46
2024/02/14 02:33:59;;;;;;;24.13;18.58;;;;;;;;;;4994191;28;20072;-47
2024/02/14 02:36:28;;;;;;;23.23;17.90;;;;;;;;;;4986847;28;20034;-47
2024/02/14 02:38:54;;;;;;;29.90;20.75;;;;;;;;;;4992886;28;20056;-46
2024/02/14 02:41:20;;;;;;;29.35;21.15;;;;;;;;;;4994367;28;20031;-47
2024/02/14 02:43:49;;;;;;;32.72;20.90;;;;;;;;;;4994489;28;20446;-47
2024/02/14 02:46:16;;;;;;;29.95;20.55;;;;;;;;;;4982910;28;20059;-46
2024/02/14 02:48:42;;;;;;;34.70;22.53;;;;;;;;;;4983821;28;20030;-48
2024/02/14 02:51:09;;;;;;;28.70;20.63;;;;;;;;;;4974836;28;20034;-46
2024/02/14 02:53:36;;;;;;;27.23;21.08;;;;;;;;;;4986234;28;20038;-47
2024/02/14 02:56:03;;;;;;;28.48;19.00;;;;;;;;;;4980232;28;20062;-46
2024/02/14 02:58:29;;;;;;;30.60;19.73;;;;;;;;;;4985251;28;20026;-46
2024/02/14 03:00:57;;;;;;;24.00;17.58;;;;;;;;;;4977889;28;20039;-47
2024/02/14 03:03:27;;;;;;;24.05;18.63;;;;;;;;;;4975426;28;20043;-47
2024/02/14 03:05:57;;;;;;;24.77;18.15;;;;;;;;;;4974682;28;20376;-47
2024/02/14 03:08:25;;;;;;;24.92;18.30;;;;;;;;;;4981700;28;20018;-46
2024/02/14 03:10:52;;;;;;;26.00;19.85;;;;;;;;;;4980609;28;20039;-46
2024/02/14 03:13:19;;;;;;;29.42;19.58;;;;;;;;;;4975893;28;20030;-46
2024/02/14 03:15:46;;;;;;;29.02;20.48;;;;;;;;;;4975812;28;20035;-48
2024/02/14 03:18:12;;;;;;;30.05;20.45;;;;;;;;;;4975667;28;20502;-46
2024/02/14 03:20:39;;;;;;;28.13;20.58;;;;;;;;;;4972906;28;20080;-46
2024/02/14 03:23:05;;;;;;;30.52;20.50;;;;;;;;;;4974150;28;20027;-47
2024/02/14 03:25:31;;;;;;;27.67;19.83;;;;;;;;;;4973684;28;20100;-46
2024/02/14 03:27:58;;;;;;;29.48;21.42;;;;;;;;;;4986116;28;20073;-49
2024/02/14 03:30:24;;;;;;;28.38;19.80;;;;;;;;;;4975446;28;20177;-46
2024/02/14 03:32:52;;;;;;;28.17;20.05;;;;;;;;;;4991526;28;20037;-47
2024/02/14 03:35:20;;;;;;;30.48;21.40;;;;;;;;;;4993169;28;20399;-47
2024/02/14 03:37:52;;;;;;;33.63;21.80;;;;;;;;;;4992609;28;20093;-46
2024/02/14 03:40:20;;;;;;;36.05;23.38;;;;;;;;;;4975250;28;20033;-47
2024/02/14 03:42:46;;;;;;;32.05;22.02;;;;;;;;;;4975024;28;20070;-48
2024/02/14 03:45:13;;;;;;;29.90;20.77;;;;;;;;;;4972573;28;20035;-48
2024/02/14 03:47:39;;;;;;;41.20;21.33;;;;;;;;;;4972456;28;20623;-46
2024/02/14 03:50:06;;;;;;;34.03;21.48;;;;;;;;;;4984648;28;20030;-46
2024/02/14 03:52:33;;;;;;;34.15;21.77;;;;;;;;;;4985676;28;20041;-46
2024/02/14 03:55:00;;;;;;;28.93;22.27;;;;;;;;;;4985235;28;20084;-47
2024/02/14 03:57:29;;;;;;;30.45;21.42;;;;;;;;;;4979324;28;20332;-46
2024/02/14 03:59:56;;;;;;;30.02;20.90;;;;;;;;;;4977193;28;20035;-46
2024/02/14 04:02:28;;;;;;;31.15;20.38;;;;;;;;;;4990464;28;20037;-46
2024/02/14 04:04:54;;;;;;;34.00;21.92;;;;;;;;;;4987630;28;20506;-46
2024/02/14 04:07:21;;;;;;;36.13;22.33;;;;;;;;;;4991832;28;20027;-46
2024/02/14 04:09:47;;;;;;;35.17;23.73;;;;;;;;;;4991107;28;20403;-45
2024/02/14 04:12:14;;;;;;;28.55;19.80;;;;;;;;;;4992665;28;20286;-46
2024/02/14 04:14:40;;;;;;;33.47;22.67;;;;;;;;;;4984815;28;20030;-46
2024/02/14 04:17:07;;;;;;;29.17;19.88;;;;;;;;;;4986371;28;20029;-46
2024/02/14 04:19:34;;;;;;;35.58;21.70;;;;;;;;;;4992126;28;20038;-48
2024/02/14 04:22:00;;;;;;;35.47;22.90;;;;;;;;;;4971987;28;20097;-46
2024/02/14 04:24:26;;;;;;;29.33;20.73;;;;;;;;;;4973208;28;20031;-46
2024/02/14 04:26:56;;;;;;;30.60;19.67;;;;;;;;;;4975561;28;20513;-46
2024/02/14 04:29:23;;;;;;;25.92;18.35;;;;;;;;;;4990877;28;20061;-46
2024/02/14 04:31:49;;;;;;;29.88;18.27;;;;;;;;;;4981967;28;20399;-48
2024/02/14 04:34:16;;;;;;;30.55;18.17;;;;;;;;;;4971638;28;20107;-47
2024/02/14 04:36:42;;;;;;;75.25;17.98;;;;;;;;;;4973290;28;20037;-46
2024/02/14 04:39:09;;;;;;;60.25;17.40;;;;;;;;;;4991036;28;20034;-46
2024/02/14 04:41:37;;;;;;;48.53;17.27;;;;;;;;;;4992657;28;20394;-47
2024/02/14 04:44:06;;;;;;;19.88;12.85;;;;;;;;;;4991120;28;20379;-47
2024/02/14 04:46:34;;;;;;;16.23;13.25;;;;;;;;;;4988436;28;20030;-47
2024/02/14 04:49:02;;;;;;;18.77;13.57;;;;;;;;;;4988236;28;20023;-45
2024/02/14 04:51:30;;;;;;;20.25;15.77;;;;;;;;;;4991986;28;20029;-46
2024/02/14 04:53:58;;;;;;;22.50;14.95;;;;;;;;;;4992077;28;20050;-46
2024/02/14 04:56:27;;;;;;;30.40;16.90;;;;;;;;;;4971398;28;20451;-43
2024/02/14 04:58:57;;;;;;;21.65;16.70;;;;;;;;;;4988641;28;20052;-47
2024/02/14 05:01:24;;;;;;;17.05;14.00;;;;;;;;;;4974148;28;20066;-47
2024/02/14 05:03:50;;;;;;;16.52;13.70;;;;;;;;;;4970908;28;20031;-48
2024/02/14 05:06:16;;;;;;;16.50;13.20;;;;;;;;;;4969595;28;20023;-46
2024/02/14 05:08:43;;;;;;;22.97;14.50;;;;;;;;;;4970928;28;20036;-47
2024/02/14 05:11:09;;;;;;;22.52;15.90;;;;;;;;;;4970797;28;20403;-46
2024/02/14 05:13:37;;;;;;;20.67;14.70;;;;;;;;;;4970737;28;20038;-46
2024/02/14 05:16:04;;;;;;;19.95;14.40;;;;;;;;;;4969499;28;20399;-49
2024/02/14 05:18:30;;;;;;;19.92;13.82;;;;;;;;;;4972000;28;20517;-46
2024/02/14 05:20:58;;;;;;;19.00;13.85;;;;;;;;;;4972694;28;20031;-46
2024/02/14 05:23:24;;;;;;;22.45;15.35;;;;;;;;;;4974618;28;20038;-46
2024/02/14 05:25:51;;;;;;;25.48;14.88;;;;;;;;;;4976283;28;20034;-47
2024/02/14 05:28:18;;;;;;;28.60;16.38;;;;;;;;;;4976309;28;20033;-47
2024/02/14 05:30:45;;;;;;;19.90;14.32;;;;;;;;;;4976501;28;20141;-46
2024/02/14 05:33:11;;;;;;;17.67;11.15;;;;;;;;;;4976416;28;20037;-46
2024/02/14 05:35:37;;;;;;;15.50;11.17;;;;;;;;;;4976083;28;20031;-46
2024/02/14 05:38:07;;;;;;;12.50;11.07;;;;;;;;;;4976250;28;20501;-46
2024/02/14 05:40:34;;;;;;;44.28;15.45;;;;;;;;;;4975949;28;20090;-46
2024/02/14 05:43:00;;;;;;;33.95;11.90;;;;;;;;;;4976106;28;20062;-46
2024/02/14 05:45:27;;;;;;;29.35;11.98;;;;;;;;;;4974677;28;20027;-48
2024/02/14 05:47:53;;;;;;;;;;;;;;;;;;4976400;28;20023;-46
2024/02/14 05:50:19;;;;;;;42.15;11.43;;;;;;;;;;4975881;28;19949;-47
2024/02/14 05:52:46;;;;;;;41.00;10.77;;;;;;;;;;4975781;28;20090;-45
2024/02/14 05:55:12;;;;;;;40.53;12.95;;;;;;;;;;4975722;28;20113;-46
2024/02/14 05:57:38;;;;;;;51.87;15.73;;;;;;;;;;4975925;28;20038;-46
2024/02/14 06:00:05;;;;;;;12.73;11.10;;;;;;;;;;4975753;28;20037;-46
2024/02/14 06:02:37;;;;;;;14.50;10.57;;;;;;;;;;4975436;28;20042;-45
2024/02/14 06:05:04;;;;;;;14.73;9.73;;;;;;;;;;4974393;28;20038;-46
2024/02/14 06:07:30;;;;;;;14.45;11.65;;;;;;;;;;4975652;28;20023;-46
2024/02/14 06:09:56;;;;;;;11.13;8.07;;;;;;;;;;4975570;28;20034;-46
2024/02/14 06:12:23;;;;;;;18.55;10.70;;;;;;;;;;4975576;28;20570;-48
2024/02/14 06:14:50;;;;;;;16.77;10.53;;;;;;;;;;4974257;28;20161;-47
2024/02/14 06:17:16;;;;;;;13.23;9.55;;;;;;;;;;4974069;28;20262;-47
2024/02/14 06:19:42;;;;;;;18.95;10.85;;;;;;;;;;4974095;28;20045;-46
2024/02/14 06:22:10;;;;;;;15.57;9.43;;;;;;;;;;4975519;28;20415;-46
2024/02/14 06:24:36;;;;;;;12.73;9.82;;;;;;;;;;4975453;28;20109;-46
2024/02/14 06:27:03;;;;;;;10.88;8.73;;;;;;;;;;4975108;28;20381;-46
2024/02/14 06:29:29;;;;;;;17.47;10.73;;;;;;;;;;4974247;28;20458;-46
2024/02/14 06:31:55;;;;;;;18.77;12.32;;;;;;;;;;4975095;28;20364;-48
2024/02/14 06:34:21;;;;;;;17.47;12.43;;;;;;;;;;4974773;28;20038;-49
2024/02/14 06:36:48;;;;;;;21.33;14.80;;;;;;;;;;4974952;28;20085;-46
2024/02/14 06:39:14;;;;;;;23.20;14.17;;;;;;;;;;4975009;28;20039;-46
2024/02/14 06:41:40;;;;;;;35.33;18.20;;;;;;;;;;4975108;28;20046;-46
2024/02/14 06:44:06;;;;;;;32.17;18.33;;;;;;;;;;4975216;28;20491;-46
2024/02/14 06:46:33;;;;;;;28.77;19.45;;;;;;;;;;4973574;28;20121;-46
2024/02/14 06:48:59;;;;;;;21.73;18.00;;;;;;;;;;4974963;28;20436;-46
2024/02/14 06:51:25;;;;;;;25.23;18.05;;;;;;;;;;4973803;28;20031;-49
2024/02/14 06:53:51;;;;;;;29.00;17.10;;;;;;;;;;4975227;28;20547;-49
2024/02/14 06:56:17;;;;;;;29.90;15.67;;;;;;;;;;4974632;28;20511;-47
2024/02/14 06:58:44;;;;;;;32.35;15.90;;;;;;;;;;4974694;28;20030;-45
2024/02/14 07:01:13;;;;;;;20.80;15.37;;;;;;;;;;4973391;28;20034;-49
2024/02/14 07:03:40;;;;;;;24.25;15.70;;;;;;;;;;4973204;28;20266;-46
2024/02/14 07:06:07;;;;;;;24.23;16.65;;;;;;;;;;4974343;28;20385;-47
2024/02/14 07:08:33;;;;;;;23.23;15.18;;;;;;;;;;4973298;28;20583;-47
2024/02/14 07:11:00;;;;;;;29.83;16.17;;;;;;;;;;4974470;28;20033;-50
2024/02/14 07:13:26;;;;;;;36.77;18.77;;;;;;;;;;4973397;28;20055;-46
2024/02/14 07:15:52;;;;;;;31.85;18.55;;;;;;;;;;4972895;28;20511;-46
2024/02/14 07:18:20;;;;;;;30.20;17.17;;;;;;;;;;4974276;28;20031;-46
2024/02/14 07:20:46;;;;;;;30.85;21.55;;;;;;;;;;4974203;28;20027;-46
2024/02/14 07:23:12;;;;;;;32.97;20.77;;;;;;;;;;4972967;28;20034;-47
2024/02/14 07:25:38;;;;;;;28.05;19.42;;;;;;;;;;4973987;28;20034;-47
2024/02/14 07:28:05;;;;;;;24.02;16.77;;;;;;;;;;4973949;28;20026;-46
2024/02/14 07:30:31;;;;;;;24.73;16.38;;;;;;;;;;4974062;28;20041;-49
2024/02/14 07:32:57;;;;;;;28.92;18.55;;;;;;;;;;4972706;28;20031;-46
2024/02/14 07:35:23;;;;;;;27.42;18.02;;;;;;;;;;4972699;28;20030;-47
2024/02/14 07:37:50;;;;;;;30.13;17.48;;;;;;;;;;4973944;28;20483;-46
2024/02/14 07:40:16;;;;;;;27.42;18.25;;;;;;;;;;4973866;28;20037;-46
2024/02/14 07:42:42;;;;;;;24.83;17.30;;;;;;;;;;4973781;28;20389;-46
2024/02/14 07:45:09;;;;;;;27.33;18.87;;;;;;;;;;4972977;28;20078;-46
2024/02/14 07:47:35;;;;;;;29.98;21.17;;;;;;;;;;4973704;28;20023;-48
2024/02/14 07:50:02;;;;;;;31.58;21.77;;;;;;;;;;4972525;28;20119;-46
2024/02/14 07:52:28;;;;;;;36.17;22.23;;;;;;;;;;4972326;28;20088;-46
2024/02/14 07:54:55;;;;;;;31.55;22.55;;;;;;;;;;4972612;28;20035;-46
2024/02/14 07:57:25;;;;;;;40.97;25.33;;;;;;;;;;4973418;28;20173;-50
2024/02/14 07:59:51;;;;;;;36.60;23.08;;;;;;;;;;4973455;28;20054;-49
2024/02/14 08:02:18;;;;;;;33.53;22.38;;;;;;;;;;4973325;28;20023;-45
2024/02/14 08:04:44;;;;;;;32.67;22.67;;;;;;;;;;4973482;28;20029;-47
2024/02/14 08:07:10;;;;;;;30.52;20.95;;;;;;;;;;4973354;28;20023;-46
2024/02/14 08:09:38;;;;;;;34.53;22.03;;;;;;;;;;4973352;28;20113;-48
2024/02/14 08:12:05;;;;;;;30.52;20.88;;;;;;;;;;4973217;28;20106;-45
2024/02/14 08:14:32;;;;;;;33.15;22.65;;;;;;;;;;4973281;28;20110;-47
2024/02/14 08:16:58;;;;;;;36.42;20.92;;;;;;;;;;4971897;28;20488;-46
2024/02/14 08:19:24;;;;;;;25.83;19.08;;;;;;;;;;4973199;28;20033;-47
2024/02/14 08:21:51;;;;;;;31.80;19.53;;;;;;;;;;4973341;28;20480;-46
2024/02/14 08:24:17;;;;;;;33.25;20.17;;;;;;;;;;4973097;28;20117;-46
2024/02/14 08:26:43;;;;;;;27.23;18.90;;;;;;;;;;4971870;28;20039;-48
2024/02/14 08:29:11;;;;;;;25.50;16.90;;;;;;;;;;4973097;28;20106;-45
2024/02/14 08:31:37;;;;;;;25.98;18.45;;;;;;;;;;4973138;28;20041;-47
2024/02/14 08:34:04;;;;;;;26.70;19.63;;;;;;;;;;4971799;28;20051;-46
2024/02/14 08:36:30;;;;;;;26.10;19.30;;;;;;;;;;4971745;28;20027;-46
2024/02/14 08:38:56;;;;;;;28.53;18.80;;;;;;;;;;4973022;28;20113;-48
2024/02/14 08:41:23;;;;;;;28.37;18.57;;;;;;;;;;4971820;28;20038;-46
2024/02/14 08:43:50;;;;;;;28.92;18.77;;;;;;;;;;4971618;28;20038;-47
2024/02/14 08:46:16;;;;;;;;;;;;;;;;;;4973295;28;20027;-46
2024/02/14 08:48:45;;;;;;;23.58;16.77;;;;;;;;;;4973017;28;19910;-48
2024/02/14 08:51:13;;;;;;;26.67;16.70;;;;;;;;;;4973038;28;20031;-46
2024/02/14 08:53:39;;;;;;;30.85;18.52;;;;;;;;;;4972748;28;20050;-46
2024/02/14 08:56:05;;;;;;;25.80;16.63;;;;;;;;;;4972828;28;20061;-46
2024/02/14 08:58:31;;;;;;;21.67;15.38;;;;;;;;;;4976869;28;20118;-46
2024/02/14 09:00:58;;;;;;;23.50;16.33;;;;;;;;;;4976751;28;20085;-46
2024/02/14 09:03:24;;;;;;;24.25;16.70;;;;;;;;;;4976617;28;20388;-47
2024/02/14 09:05:51;;;;;;;21.60;14.40;;;;;;;;;;4976566;28;20491;-45
2024/02/14 09:08:17;;;;;;;;;;;;;;;;;;4976923;28;20031;-46
2024/02/14 09:10:45;;;;;;;24.90;14.73;;;;;;;;;;4976466;28;19910;-48
2024/02/14 09:13:12;;;;;;;26.67;16.75;;;;;;;;;;4976552;28;20218;-46
2024/02/14 09:15:38;;;;;;;18.38;12.20;;;;;;;;;;4975232;28;20039;-47
2024/02/14 09:18:04;;;;;;;16.87;9.97;;;;;;;;;;4975395;28;20515;-47
2024/02/14 09:20:31;;;;;;;18.88;11.45;;;;;;;;;;4976376;28;20313;-46
2024/02/14 09:22:58;;;;;;;22.58;13.05;;;;;;;;;;4976429;28;20027;-47
2024/02/14 09:25:25;;;;;;;;;;;;;;;;;;4975377;28;20515;-47
2024/02/14 09:27:51;;;;;;;16.83;10.90;;;;;;;;;;4976258;28;19925;-47
2024/02/14 09:30:17;;;;;;;18.55;10.50;;;;;;;;;;4976389;28;20038;-46
2024/02/14 09:32:44;;;;;;;16.80;10.95;;;;;;;;;;4976315;28;20035;-46
2024/02/14 09:35:11;;;;;;;18.20;11.35;;;;;;;;;;4976046;28;20058;-46
2024/02/14 09:37:38;;;;;;;17.50;12.25;;;;;;;;;;4976492;28;20439;-47
2024/02/14 09:40:05;;;;;;;19.25;12.48;;;;;;;;;;4975964;28;20027;-46
2024/02/14 09:42:43;;;;;;;16.92;11.88;;;;;;;;;;4976014;28;20031;-46
2024/02/14 09:45:10;;;;;;;17.02;12.18;;;;;;;;;;4976021;28;20027;-46
2024/02/14 09:47:38;;;;;;;16.55;11.52;;;;;;;;;;4976009;28;20026;-46
2024/02/14 09:50:04;;;;;;;15.50;10.13;;;;;;;;;;4975880;28;20110;-48
2024/02/14 09:52:33;;;;;;;15.15;9.73;;;;;;;;;;4975729;28;20041;-46
2024/02/14 09:55:00;;;;;;;15.30;10.02;;;;;;;;;;4975859;28;20039;-46
2024/02/14 09:57:27;;;;;;;18.80;11.00;;;;;;;;;;4975620;28;20022;-46
2024/02/14 09:59:55;;;;;;;16.38;11.18;;;;;;;;;;4975689;28;20042;-45
2024/02/14 10:02:21;;;;;;;17.48;10.68;;;;;;;;;;4974244;28;20488;-45
2024/02/14 10:04:48;;;;;;;15.30;10.20;;;;;;;;;;4974485;28;20487;-46
2024/02/14 10:07:14;;;;;;;23.00;11.23;;;;;;;;;;4973578;28;20500;-46
2024/02/14 10:09:41;;;;;;;16.50;9.82;;;;;;;;;;4975470;28;20062;-46
2024/02/14 10:12:11;;;;;;;15.07;11.98;;;;;;;;;;4974256;28;20458;-47
2024/02/14 10:14:38;;;;;;;16.90;11.30;;;;;;;;;;4975425;28;20048;-46
2024/02/14 10:17:09;;;;;;;16.15;10.32;;;;;;;;;;4974080;28;20031;-46
2024/02/14 10:19:36;;;;;;;18.83;10.48;;;;;;;;;;4975356;28;20038;-46
2024/02/14 10:22:05;;;;;;;14.65;10.02;;;;;;;;;;4975586;28;20031;-46
2024/02/14 10:24:31;;;;;;;17.17;10.82;;;;;;;;;;4975241;28;20054;-46
2024/02/14 10:26:59;;;;;;;15.70;10.10;;;;;;;;;;4975272;28;20102;-46
2024/02/14 10:29:26;;;;;;;14.80;9.38;;;;;;;;;;4973829;28;20505;-47
2024/02/14 10:31:53;;;;;;;17.23;10.10;;;;;;;;;;4973972;28;20039;-47
2024/02/14 10:34:22;;;;;;;33.88;12.68;;;;;;;;;;4973782;28;20427;-46
2024/02/14 10:36:51;;;;;;;19.35;10.65;;;;;;;;;;4974990;28;20019;-46
2024/02/14 10:39:17;;;;;;;38.85;12.63;;;;;;;;;;4974890;28;20019;-46
2024/02/14 10:41:44;;;;;;;23.27;11.23;;;;;;;;;;4973776;28;20027;-48
2024/02/14 10:44:11;;;;;;;20.07;12.40;;;;;;;;;;4973732;28;20109;-46
2024/02/14 10:46:37;;;;;;;16.77;11.35;;;;;;;;;;4973499;28;20472;-47
2024/02/14 10:49:05;;;;;;;18.40;11.93;;;;;;;;;;4973738;28;20027;-45
2024/02/14 10:51:31;;;;;;;;;;;;;;;;;;4975256;28;20097;-47
2024/02/14 10:53:59;;;;;;;22.45;12.40;;;;;;;;;;4973338;28;19921;-47
2024/02/14 10:56:29;;;;;;;21.63;11.73;;;;;;;;;;4974522;28;20488;-47
2024/02/14 10:58:58;;;;;;;18.10;11.93;;;;;;;;;;4974710;28;20046;-44
2024/02/14 11:01:27;;;;;;;20.23;12.10;;;;;;;;;;4973241;28;20041;-47
2024/02/14 11:03:55;;;;;;;16.27;12.60;;;;;;;;;;4973317;28;20101;-47
2024/02/14 11:06:22;;;;;;;19.42;12.93;;;;;;;;;;4973120;28;20049;-46
2024/02/14 11:08:57;;;;;;;18.45;13.02;;;;;;;;;;4974431;28;20030;-46
2024/02/14 11:11:23;;;;;;;20.02;12.88;;;;;;;;;;4974485;28;20085;-45
2024/02/14 11:13:53;;;;;;;23.10;16.20;;;;;;;;;;4973016;28;20400;-47
2024/02/14 11:16:24;;;;;;;23.73;15.43;;;;;;;;;;4974193;28;20373;-46
2024/02/14 11:18:50;;;;;;;27.70;15.85;;;;;;;;;;4977051;28;20133;-47
2024/02/14 11:21:17;;;;;;;26.80;15.93;;;;;;;;;;4981394;28;20056;-45
2024/02/14 11:23:43;;;;;;;;;;;;;;;;;;4982306;28;20030;-47
2024/02/14 11:26:16;;;;;;;19.80;14.40;;;;;;;;;;4985530;28;20417;-47
2024/02/14 11:28:42;;;;;;;20.50;13.77;;;;;;;;;;4983178;28;20031;-47
2024/02/14 11:31:09;;;;;;;19.50;12.73;;;;;;;;;;4989010;28;20042;-47
2024/02/14 11:33:36;;;;;;;23.52;13.30;;;;;;;;;;4993003;28;20045;-46
2024/02/14 11:36:11;;;;;;;20.10;13.40;;;;;;;;;;4988754;28;20022;-48
2024/02/14 11:38:37;;;;;;;20.85;13.70;;;;;;;;;;4975409;28;20026;-48
2024/02/14 11:41:04;;;;;;;24.75;14.15;;;;;;;;;;4981655;28;20415;-47
2024/02/14 11:43:31;;;;;;;18.63;13.63;;;;;;;;;;4979393;28;20030;-49
2024/02/14 11:45:57;;;;;;;19.52;14.60;;;;;;;;;;4989514;28;20479;-46
2024/02/14 11:48:23;;;;;;;19.67;14.68;;;;;;;;;;4990260;28;20030;-47
2024/02/14 11:50:51;;;;;;;22.85;14.68;;;;;;;;;;4991409;28;20507;-47
2024/02/14 11:53:21;;;;;;;21.30;14.25;;;;;;;;;;4984735;28;20034;-47
2024/02/14 11:55:47;;;;;;;20.27;13.98;;;;;;;;;;4979113;28;20023;-45
2024/02/14 11:58:15;;;;;;;22.87;14.73;;;;;;;;;;4977582;28;20121;-45
2024/02/14 12:00:43;;;;;;;20.17;15.05;;;;;;;;;;4985895;28;20066;-47
2024/02/14 12:03:25;;;;;;;20.23;15.02;;;;;;;;;;4984644;28;20057;-48
2024/02/14 12:05:52;;;;;;;23.88;14.90;;;;;;;;;;4982701;28;20033;-46
2024/02/14 12:08:19;;;;;;;21.35;14.25;;;;;;;;;;4989861;28;20096;-47
2024/02/14 12:10:52;;;;;;;23.80;14.77;;;;;;;;;;4983998;28;20046;-47
2024/02/14 12:13:20;;;;;;;24.85;16.27;;;;;;;;;;4975622;28;20038;-48
2024/02/14 12:15:47;;;;;;;26.20;16.13;;;;;;;;;;4984316;28;20034;-48
2024/02/14 12:18:13;;;;;;;;;;;;;;;;;;4982535;28;20040;-46
2024/02/14 12:20:40;;;;;;;23.27;15.85;;;;;;;;;;4988612;28;20310;-47
2024/02/14 12:23:07;;;;;;;25.88;16.90;;;;;;;;;;4986088;28;20506;-48
2024/02/14 12:25:33;;;;;;;24.85;16.35;;;;;;;;;;4983110;28;20030;-46
2024/02/14 12:28:03;;;;;;;25.30;16.75;;;;;;;;;;4985751;28;20032;-49
2024/02/14 12:30:51;;;;;;;22.88;16.35;;;;;;;;;;4988707;28;20022;-49
2024/02/14 12:33:18;;;;;;;27.55;17.90;;;;;;;;;;4990184;28;20477;-47
2024/02/14 12:35:50;;;;;;;24.55;17.83;;;;;;;;;;4971364;28;20512;-47
2024/02/14 12:38:17;;;;;;;27.20;17.50;;;;;;;;;;4990906;28;20139;-51
2024/02/14 12:40:44;;;;;;;24.02;16.52;;;;;;;;;;4986241;28;20507;-48
2024/02/14 12:43:12;;;;;;;25.25;16.33;;;;;;;;;;4971217;28;20054;-49
2024/02/14 12:45:39;;;;;;;22.45;17.42;;;;;;;;;;4982625;28;20653;-47
2024/02/14 12:48:06;;;;;;;27.05;18.38;;;;;;;;;;4990794;28;20026;-47
2024/02/14 12:50:32;;;;;;;23.08;18.02;;;;;;;;;;4990380;28;20447;-47
2024/02/14 12:52:59;;;;;;;31.27;17.77;;;;;;;;;;4991039;28;20113;-49
2024/02/14 12:55:25;;;;;;;27.57;16.60;;;;;;;;;;4972581;28;20047;-47
2024/02/14 12:57:56;;;;;;;22.70;15.63;;;;;;;;;;4978206;28;20030;-48
2024/02/14 13:00:22;;;;;;;24.35;16.33;;;;;;;;;;4986478;28;20073;-49
2024/02/14 13:02:49;;;;;;;23.75;17.25;;;;;;;;;;4990525;28;20479;-48
2024/02/14 13:05:15;;;;;;;22.17;16.30;;;;;;;;;;4974281;28;20114;-48
2024/02/14 13:07:42;;;;;;;24.58;17.25;;;;;;;;;;4971169;28;20054;-48
2024/02/14 13:10:10;;;;;;;25.05;16.95;;;;;;;;;;4971043;28;20038;-50
2024/02/14 13:12:37;;;;;;;22.10;17.10;;;;;;;;;;4970982;28;20270;-47
2024/02/14 13:15:03;;;;;;;27.95;18.63;;;;;;;;;;4972192;28;20547;-50
2024/02/14 13:17:30;;;;;;;23.80;15.93;;;;;;;;;;4988687;28;20114;-49
2024/02/14 13:19:57;;;;;;;21.10;15.40;;;;;;;;;;4988869;28;20049;-49
2024/02/14 13:22:23;;;;;;;;;;;;;;;;;;4971499;28;20034;-49
2024/02/14 13:24:50;;;;;;;21.42;17.15;;;;;;;;;;4978445;28;19917;-50
2024/02/14 13:27:16;;;;;;;25.63;15.95;;;;;;;;;;4970660;28;20027;-47
2024/02/14 13:29:43;;;;;;;24.75;16.42;;;;;;;;;;4972447;28;20034;-48
2024/02/14 13:32:09;;;;;;;;;;;;;;;;;;4986169;28;20042;-48
2024/02/14 13:34:35;;;;;;;25.33;15.57;;;;;;;;;;4971270;28;19914;-51
2024/02/14 13:37:02;;;;;;;20.90;15.65;;;;;;;;;;4977919;28;20057;-48
2024/02/14 13:39:28;;;;;;;23.02;17.00;;;;;;;;;;4978602;28;20030;-47
2024/02/14 13:41:58;;;;;;;16.85;12.93;;;;;;;;;;4985555;28;20042;-48
2024/02/14 13:44:27;;;;;;;18.65;12.23;;;;;;;;;;4976711;28;20023;-49
2024/02/14 13:46:54;;;;;;;18.77;13.55;;;;;;;;;;4981941;28;20049;-51
2024/02/14 13:49:23;;;;;;;18.63;13.60;;;;;;;;;;4993467;28;20031;-47
2024/02/14 13:51:52;;;;;;;19.30;13.13;;;;;;;;;;4995314;28;20038;-47
2024/02/14 13:54:19;;;;;;;18.33;14.10;;;;;;;;;;4995158;28;20041;-47
2024/02/14 13:56:48;;;;;;;18.95;13.07;;;;;;;;;;4995237;28;20410;-48
2024/02/14 13:59:14;;;;;;;18.90;14.32;;;;;;;;;;4995268;28;20065;-50
2024/02/14 14:01:41;;;;;;;25.13;14.32;;;;;;;;;;4993882;28;20380;-47
2024/02/14 14:04:07;;;;;;;19.77;13.43;;;;;;;;;;4995319;28;20419;-49
2024/02/14 14:06:34;;;;;;;20.95;13.90;;;;;;;;;;4993677;28;20038;-47
2024/02/14 14:09:03;;;;;;;18.27;12.40;;;;;;;;;;4995072;28;20442;-50
2024/02/14 14:11:29;;;;;;;24.95;14.15;;;;;;;;;;4994983;28;20396;-51
2024/02/14 14:13:55;;;;;;;19.05;13.93;;;;;;;;;;4994954;28;20040;-47
2024/02/14 14:16:22;;;;;;;18.52;13.27;;;;;;;;;;4994753;28;20031;-49
2024/02/14 14:18:51;;;;;;;22.55;15.05;;;;;;;;;;4994817;28;20038;-50
2024/02/14 14:21:18;;;;;;;22.80;14.63;;;;;;;;;;4994775;28;20256;-50